Time;durP1;ratioP1;P1;durP2;ratioP2;P2;SDS_P1;SDS_P2;PMS_P1;PMS_P2;Temp;Humidity;BMP_temperature;BMP_pressure;BME280_temperature;BME280_humidity;BME280_pressure;Samples;Min_cycle;Max_cycle;Signal;HPM_P1;HPM_P2
2022/02/13 00:00:35;;;;;;;;;;;;;;;;;;4999368;28;19922;-66
2022/02/13 00:03:00;;;;;;;;;;;;;;;;;;4993657;28;19914;-67
2022/02/13 00:05:25;;;;;;;;;;;;;;;;;;4988808;28;20377;-67
2022/02/13 00:07:50;;;;;;;;;;;;;;;;;;4994402;28;20266;-66
2022/02/13 00:10:15;;;;;;;;;;;;;;;;;;4997952;28;20282;-66
2022/02/13 00:12:41;;;;;;;;;;;;;;;;;;4997388;28;19917;-66
2022/02/13 00:15:06;;;;;;;;;;;;;;;;;;4990664;28;20381;-66
2022/02/13 00:17:31;;;;;;;;;;;;;;;;;;4992269;28;20246;-66
2022/02/13 00:19:58;;;;;;;;;;;;;;;;;;4997015;28;19964;-65
2022/02/13 00:22:24;;;;;;;;;;;;;;;;;;4991806;28;19984;-66
2022/02/13 00:24:50;;;;;;;;;;;;;;;;;;4990183;28;20329;-66
2022/02/13 00:27:15;;;;;;;;;;;;;;;;;;4992674;28;19917;-66
2022/02/13 00:29:40;;;;;;;;;;;;;;;;;;4996973;28;19972;-67
2022/02/13 00:32:06;;;;;;;;;;;;;;;;;;4990776;28;19953;-67
2022/02/13 00:34:31;;;;;;;;;;;;;;;;;;4989678;28;19925;-67
2022/02/13 00:36:56;;;;;;;;;;;;;;;;;;4993384;28;19913;-67
2022/02/13 00:39:21;;;;;;;;;;;;;;;;;;4996676;28;19924;-67
2022/02/13 00:41:47;;;;;;;;;;;;;;;;;;4994446;28;19969;-67
2022/02/13 00:44:12;;;;;;;;;;;;;;;;;;4992921;28;19979;-67
2022/02/13 00:46:37;;;;;;;;;;;;;;;;;;4988810;28;20413;-67
2022/02/13 00:49:02;;;;;;;;;;;;;;;;;;5001073;28;19928;-67
2022/02/13 00:51:28;;;;;;;;;;;;;;;;;;5004906;28;19921;-67
2022/02/13 00:53:53;;;;;;;;;;;;;;;;;;5005709;28;19926;-67
2022/02/13 00:56:18;;;;;;;;;;;;;;;;;;5000179;28;19909;-67
2022/02/13 00:58:46;;;;;;;;;;;;;;;;;;4997488;28;19914;-67
2022/02/13 01:01:12;;;;;;;;;;;;;;;;;;4988668;28;19922;-68
2022/02/13 01:03:37;;;;;;;;;;;;;;;;;;4999109;28;19913;-67
2022/02/13 01:06:03;;;;;;;;;;;;;;;;;;4994879;28;19925;-66
2022/02/13 01:08:28;;;;;;;;;;;;;;;;;;4994335;28;19917;-66
2022/02/13 01:10:53;;;;;;;;;;;;;;;;;;4995792;28;19913;-65
2022/02/13 01:13:19;;;;;;;;;;;;;;;;;;4996817;28;20273;-66
2022/02/13 01:15:44;;;;;;;;;;;;;;;;;;4996778;28;19983;-66
2022/02/13 01:18:10;;;;;;;;;;;;;;;;;;4995426;28;19925;-66
2022/02/13 01:20:35;;;;;;;;;;;;;;;;;;4995009;28;19922;-66
2022/02/13 01:23:01;;;;;;;;;;;;;;;;;;4996952;28;19921;-66
2022/02/13 01:25:26;;;;;;;;;;;;;;;;;;4998782;28;19918;-66
2022/02/13 01:27:51;;;;;;;;;;;;;;;;;;4996633;28;19920;-67
2022/02/13 01:30:16;;;;;;;;;;;;;;;;;;4993061;28;19914;-66
2022/02/13 01:32:41;;;;;;;;;;;;;;;;;;5002095;28;19917;-67
2022/02/13 01:35:09;;;;;;;;;;;;;;;;;;4997569;28;19914;-67
2022/02/13 01:37:35;;;;;;;;;;;;;;;;;;5001498;28;20099;-66
2022/02/13 01:40:00;;;;;;;;;;;;;;;;;;4994380;28;20546;-66
2022/02/13 01:42:25;;;;;;;;;;;;;;;;;;4998857;28;20342;-66
2022/02/13 01:44:52;;;;;;;;;;;;;;;;;;4999057;28;19914;-67
2022/02/13 01:47:18;;;;;;;;;;;;;;;;;;4997340;28;20013;-66
2022/02/13 01:49:43;;;;;;;;;;;;;;;;;;5002790;28;20273;-66
2022/02/13 01:52:08;;;;;;;;;;;;;;;;;;4999730;28;19921;-66
2022/02/13 01:54:34;;;;;;;;;;;;;;;;;;4995807;28;19925;-68
2022/02/13 01:56:59;;;;;;;;;;;;;;;;;;4990495;28;19914;-67
2022/02/13 01:59:24;;;;;;;;;;;;;;;;;;4996445;28;19971;-67
2022/02/13 02:01:50;;;;;;;;;;;;;;;;;;4998414;28;19925;-66
2022/02/13 02:04:16;;;;;;;;;;;;;;;;;;4997543;28;19914;-68
2022/02/13 02:06:41;;;;;;;;;;;;;;;;;;4990781;28;19918;-67
2022/02/13 02:09:06;;;;;;;;;;;;;;;;;;4995985;28;20754;-67
2022/02/13 02:11:32;;;;;;;;;;;;;;;;;;4996698;28;19914;-67
2022/02/13 02:13:57;;;;;;;;;;;;;;;;;;4998701;28;20041;-67
2022/02/13 02:16:22;;;;;;;;;;;;;;;;;;4988474;28;19914;-66
2022/02/13 02:18:48;;;;;;;;;;;;;;;;;;4996026;28;19967;-67
2022/02/13 02:21:13;;;;;;;;;;;;;;;;;;4998563;28;19921;-67
2022/02/13 02:23:39;;;;;;;;;;;;;;;;;;4996621;28;19921;-68
2022/02/13 02:26:04;;;;;;;;;;;;;;;;;;4993605;28;19914;-67
2022/02/13 02:28:30;;;;;;;;;;;;;;;;;;4996620;28;19920;-67
2022/02/13 02:30:55;;;;;;;;;;;;;;;;;;5003691;28;19920;-68
2022/02/13 02:33:20;;;;;;;;;;;;;;;;;;4998431;28;19924;-69
2022/02/13 02:35:47;;;;;;;;;;;;;;;;;;5002936;28;19925;-68
2022/02/13 02:38:12;;;;;;;;;;;;;;;;;;5000465;28;19925;-68
2022/02/13 02:40:37;;;;;;;;;;;;;;;;;;4996258;28;19921;-68
2022/02/13 02:43:02;;;;;;;;;;;;;;;;;;4991117;28;19914;-68
2022/02/13 02:45:28;;;;;;;;;;;;;;;;;;4999443;28;19949;-68
2022/02/13 02:47:53;;;;;;;;;;;;;;;;;;5000075;28;19960;-68
2022/02/13 02:50:18;;;;;;;;;;;;;;;;;;4993180;28;19936;-69
2022/02/13 02:52:43;;;;;;;;;;;;;;;;;;4990704;28;19955;-69
2022/02/13 02:55:09;;;;;;;;;;;;;;;;;;4997811;28;20476;-69
2022/02/13 02:57:34;;;;;;;;;;;;;;;;;;4995989;28;19917;-69
2022/02/13 02:59:59;;;;;;;;;;;;;;;;;;5001686;28;20278;-69
2022/02/13 03:02:25;;;;;;;;;;;;;;;;;;4989940;28;19921;-69
2022/02/13 03:04:50;;;;;;;;;;;;;;;;;;4996278;28;19918;-69
2022/02/13 03:07:15;;;;;;;;;;;;;;;;;;4995468;28;19921;-69
2022/02/13 03:09:40;;;;;;;;;;;;;;;;;;4991893;28;19933;-69
2022/02/13 03:12:06;;;;;;;;;;;;;;;;;;4990030;28;19914;-69
2022/02/13 03:14:31;;;;;;;;;;;;;;;;;;4997077;28;20010;-69
2022/02/13 03:16:56;;;;;;;;;;;;;;;;;;5000677;28;19913;-69
2022/02/13 03:19:21;;;;;;;;;;;;;;;;;;4992577;28;20329;-69
2022/02/13 03:21:46;;;;;;;;;;;;;;;;;;4992294;28;20287;-68
2022/02/13 03:24:12;;;;;;;;;;;;;;;;;;5002783;28;20818;-68
2022/02/13 03:26:37;;;;;;;;;;;;;;;;;;4998255;28;19940;-68
2022/02/13 03:29:02;;;;;;;;;;;;;;;;;;4999119;28;19917;-68
2022/02/13 03:31:28;;;;;;;;;;;;;;;;;;4989260;28;19909;-69
2022/02/13 03:33:53;;;;;;;;;;;;;;;;;;4998548;28;19921;-68
2022/02/13 03:36:19;;;;;;;;;;;;;;;;;;4976859;28;19913;-68
2022/02/13 03:38:44;;;;;;;;;;;;;;;;;;4993215;28;19925;-68
2022/02/13 03:41:09;;;;;;;;;;;;;;;;;;4996820;28;19978;-69
2022/02/13 03:43:34;;;;;;;;;;;;;;;;;;4996754;28;19984;-69
2022/02/13 03:46:00;;;;;;;;;;;;;;;;;;5001617;28;19914;-68
2022/02/13 03:48:25;;;;;;;;;;;;;;;;;;4992799;28;20000;-68
2022/02/13 03:50:50;;;;;;;;;;;;;;;;;;4993823;28;19961;-69
2022/02/13 03:53:15;;;;;;;;;;;;;;;;;;4994488;28;19913;-69
2022/02/13 03:55:41;;;;;;;;;;;;;;;;;;4990037;28;19949;-69
2022/02/13 03:58:06;;;;;;;;;;;;;;;;;;4991596;28;19914;-69
2022/02/13 04:00:31;;;;;;;;;;;;;;;;;;4997442;28;19926;-68
2022/02/13 04:02:56;;;;;;;;;;;;;;;;;;4995296;28;19956;-69
2022/02/13 04:05:22;;;;;;;;;;;;;;;;;;4989972;28;20358;-69
2022/02/13 04:07:47;;;;;;;;;;;;;;;;;;4990053;28;19936;-68
2022/02/13 04:10:13;;;;;;;;;;;;;;;;;;4995961;28;20412;-68
2022/02/13 04:12:38;;;;;;;;;;;;;;;;;;5000265;28;19971;-68
2022/02/13 04:15:04;;;;;;;;;;;;;;;;;;4995190;28;19921;-68
2022/02/13 04:17:29;;;;;;;;;;;;;;;;;;4997415;28;19910;-68
2022/02/13 04:19:54;;;;;;;;;;;;;;;;;;5001213;28;19918;-68
2022/02/13 04:22:19;;;;;;;;;;;;;;;;;;5002761;28;19921;-68
2022/02/13 04:24:45;;;;;;;;;;;;;;;;;;4995769;28;20322;-68
2022/02/13 04:27:10;;;;;;;;;;;;;;;;;;5005554;28;19913;-68
2022/02/13 04:29:35;;;;;;;;;;;;;;;;;;5001785;28;19910;-69
2022/02/13 04:32:00;;;;;;;;;;;;;;;;;;4996090;28;19936;-69
2022/02/13 04:34:25;;;;;;;;;;;;;;;;;;4992400;28;19914;-69
2022/02/13 04:36:51;;;;;;;;;;;;;;;;;;4981570;28;19953;-68
2022/02/13 04:39:16;;;;;;;;;;;;;;;;;;4999908;28;20022;-68
2022/02/13 04:41:41;;;;;;;;;;;;;;;;;;4994558;28;20437;-68
2022/02/13 04:44:06;;;;;;;;;;;;;;;;;;4992699;28;19913;-68
2022/02/13 04:46:31;;;;;;;;;;;;;;;;;;4997271;28;19928;-68
2022/02/13 04:48:57;;;;;;;;;;;;;;;;;;4998549;28;20020;-69
2022/02/13 04:51:22;;;;;;;;;;;;;;;;;;4994025;28;19976;-68
2022/02/13 04:53:47;;;;;;;;;;;;;;;;;;4994729;28;19960;-68
2022/02/13 04:56:12;;;;;;;;;;;;;;;;;;4997441;28;20046;-69
2022/02/13 04:58:37;;;;;;;;;;;;;;;;;;5000947;28;19975;-68
2022/02/13 05:01:03;;;;;;;;;;;;;;;;;;4992310;28;19922;-68
2022/02/13 05:03:28;;;;;;;;;;;;;;;;;;4997544;28;20021;-68
2022/02/13 05:05:53;;;;;;;;;;;;;;;;;;4999036;28;20818;-68
2022/02/13 05:08:18;;;;;;;;;;;;;;;;;;5003928;28;19971;-68
2022/02/13 05:10:43;;;;;;;;;;;;;;;;;;4994571;28;19917;-68
2022/02/13 05:13:09;;;;;;;;;;;;;;;;;;4995095;28;19972;-68
2022/02/13 05:15:34;;;;;;;;;;;;;;;;;;4996941;28;19914;-68
2022/02/13 05:17:59;;;;;;;;;;;;;;;;;;4997885;28;19913;-68
2022/02/13 05:20:24;;;;;;;;;;;;;;;;;;4993135;28;19949;-68
2022/02/13 05:22:50;;;;;;;;;;;;;;;;;;5004548;28;19933;-68
2022/02/13 05:25:15;;;;;;;;;;;;;;;;;;4998471;28;19916;-68
2022/02/13 05:27:40;;;;;;;;;;;;;;;;;;4996761;28;19932;-68
2022/02/13 05:30:05;;;;;;;;;;;;;;;;;;4992207;28;19984;-69
2022/02/13 05:32:30;;;;;;;;;;;;;;;;;;4997441;28;20709;-68
2022/02/13 05:34:56;;;;;;;;;;;;;;;;;;4997145;28;20556;-69
2022/02/13 05:37:21;;;;;;;;;;;;;;;;;;4994079;28;19949;-69
2022/02/13 05:39:46;;;;;;;;;;;;;;;;;;4992664;28;19972;-69
2022/02/13 05:42:11;;;;;;;;;;;;;;;;;;4997610;28;19924;-69
2022/02/13 05:44:38;;;;;;;;;;;;;;;;;;4997170;28;19949;-69
2022/02/13 05:47:03;;;;;;;;;;;;;;;;;;4994029;28;19920;-69
2022/02/13 05:49:28;;;;;;;;;;;;;;;;;;4994919;28;20285;-69
2022/02/13 05:51:54;;;;;;;;;;;;;;;;;;5000692;28;19932;-69
2022/02/13 05:54:19;;;;;;;;;;;;;;;;;;4999868;28;19909;-69
2022/02/13 05:56:44;;;;;;;;;;;;;;;;;;4990538;28;19953;-69
2022/02/13 05:59:09;;;;;;;;;;;;;;;;;;4995534;28;19968;-69
2022/02/13 06:01:35;;;;;;;;;;;;;;;;;;4998455;28;19913;-69
2022/02/13 06:04:00;;;;;;;;;;;;;;;;;;5003830;28;19913;-69
2022/02/13 06:06:25;;;;;;;;;;;;;;;;;;5002392;28;20029;-69
2022/02/13 06:08:50;;;;;;;;;;;;;;;;;;4997269;28;19913;-69
2022/02/13 06:11:15;;;;;;;;;;;;;;;;;;5000244;28;20603;-69
2022/02/13 06:13:41;;;;;;;;;;;;;;;;;;4992674;28;19925;-69
2022/02/13 06:16:07;;;;;;;;;;;;;;;;;;4989780;28;19983;-69
2022/02/13 06:18:33;;;;;;;;;;;;;;;;;;5002702;28;19932;-69
2022/02/13 06:20:58;;;;;;;;;;;;;;;;;;4998059;28;19925;-68
2022/02/13 06:23:23;;;;;;;;;;;;;;;;;;4995273;28;19914;-69
2022/02/13 06:25:48;;;;;;;;;;;;;;;;;;4990623;28;19910;-69
2022/02/13 06:28:14;;;;;;;;;;;;;;;;;;4994322;28;19914;-68
2022/02/13 06:30:39;;;;;;;;;;;;;;;;;;4996410;28;19921;-69
2022/02/13 06:33:04;;;;;;;;;;;;;;;;;;4993834;28;19946;-69
2022/02/13 06:35:30;;;;;;;;;;;;;;;;;;4995602;28;19905;-68
2022/02/13 06:37:55;;;;;;;;;;;;;;;;;;4997895;28;20029;-69
2022/02/13 06:40:20;;;;;;;;;;;;;;;;;;4995711;28;19928;-68
2022/02/13 06:42:46;;;;;;;;;;;;;;;;;;4990091;28;20289;-70
2022/02/13 06:45:11;;;;;;;;;;;;;;;;;;4991219;28;19920;-69
2022/02/13 06:47:36;;;;;;;;;;;;;;;;;;4995812;28;20347;-69
2022/02/13 06:50:01;;;;;;;;;;;;;;;;;;5000795;28;20560;-69
2022/02/13 06:52:27;;;;;;;;;;;;;;;;;;4999604;28;20030;-70
2022/02/13 06:54:52;;;;;;;;;;;;;;;;;;4992356;28;19963;-69
2022/02/13 06:57:17;;;;;;;;;;;;;;;;;;4997162;28;19913;-69
2022/02/13 06:59:42;;;;;;;;;;;;;;;;;;5003743;28;20425;-69
2022/02/13 07:02:10;;;;;;;;;;;;;;;;;;5003421;28;20009;-69
2022/02/13 07:04:35;;;;;;;;;;;;;;;;;;5003876;28;19918;-69
2022/02/13 07:07:00;;;;;;;;;;;;;;;;;;4996787;28;19924;-69
2022/02/13 07:09:26;;;;;;;;;;;;;;;;;;4995378;28;20008;-69
2022/02/13 07:11:51;;;;;;;;;;;;;;;;;;4989018;28;19914;-69
2022/02/13 07:14:16;;;;;;;;;;;;;;;;;;4999600;28;19913;-69
2022/02/13 07:16:41;;;;;;;;;;;;;;;;;;4996880;28;19965;-69
2022/02/13 07:19:07;;;;;;;;;;;;;;;;;;5004533;28;20060;-69
2022/02/13 07:21:32;;;;;;;;;;;;;;;;;;4992448;28;19965;-69
2022/02/13 07:23:57;;;;;;;;;;;;;;;;;;5004077;28;19914;-69
2022/02/13 07:26:24;;;;;;;;;;;;;;;;;;5000733;28;20020;-69
2022/02/13 07:29:01;;;;;;;;;;;;;;;;;;4992834;28;19953;-69
2022/02/13 07:31:27;;;;;;;;;;;;;;;;;;5004383;28;19914;-69
2022/02/13 07:33:52;;;;;;;;;;;;;;;;;;4997137;28;20282;-69
2022/02/13 07:36:17;;;;;;;;;;;;;;;;;;4995049;28;19917;-69
2022/02/13 07:38:42;;;;;;;;;;;;;;;;;;4989973;28;20358;-69
2022/02/13 07:41:08;;;;;;;;;;;;;;;;;;4991935;28;20380;-68
2022/02/13 07:43:33;;;;;;;;;;;;;;;;;;4996803;28;19909;-69
2022/02/13 07:45:59;;;;;;;;;;;;;;;;;;4995914;28;19915;-68
2022/02/13 07:48:24;;;;;;;;;;;;;;;;;;4996514;28;19913;-69
2022/02/13 07:50:49;;;;;;;;;;;;;;;;;;4993806;28;19995;-69
2022/02/13 07:53:14;;;;;;;;;;;;;;;;;;4998509;28;19936;-70
2022/02/13 07:55:40;;;;;;;;;;;;;;;;;;4990936;28;19914;-70
2022/02/13 07:58:05;;;;;;;;;;;;;;;;;;4995125;28;20393;-69
2022/02/13 08:00:30;;;;;;;;;;;;;;;;;;4998780;28;20408;-69
2022/02/13 08:02:55;;;;;;;;;;;;;;;;;;4994400;28;20023;-70
2022/02/13 08:05:21;;;;;;;;;;;;;;;;;;4974938;28;20008;-69
2022/02/13 08:07:46;;;;;;;;;;;;;;;;;;4992506;28;19913;-70
2022/02/13 08:10:13;;;;;;;;;;;;;;;;;;4998467;28;20409;-68
2022/02/13 08:12:38;;;;;;;;;;;;;;;;;;4981016;28;19990;-68
2022/02/13 08:15:03;;;;;;;;;;;;;;;;;;4991819;28;20009;-69
2022/02/13 08:17:29;;;;;;;;;;;;;;;;;;4988407;28;19915;-70
2022/02/13 08:19:54;;;;;;;;;;;;;;;;;;4995011;28;20384;-69
2022/02/13 08:22:19;;;;;;;;;;;;;;;;;;5000146;28;20059;-69
2022/02/13 08:24:46;;;;;;;;;;;;;;;;;;4999630;28;19999;-69
2022/02/13 08:27:11;;;;;;;;;;;;;;;;;;4999447;28;19910;-69
2022/02/13 08:29:36;;;;;;;;;;;;;;;;;;4995412;28;19914;-69
2022/02/13 08:32:02;;;;;;;;;;;;;;;;;;4992759;28;19914;-69
2022/02/13 08:34:27;;;;;;;;;;;;;;;;;;4988745;28;19945;-68
2022/02/13 08:36:52;;;;;;;;;;;;;;;;;;4993278;28;20008;-69
2022/02/13 08:39:17;;;;;;;;;;;;;;;;;;4994635;28;20377;-69
2022/02/13 08:41:42;;;;;;;;;;;;;;;;;;5001324;28;19918;-69
2022/02/13 08:44:08;;;;;;;;;;;;;;;;;;4989701;28;19952;-69
2022/02/13 08:46:33;;;;;;;;;;;;;;;;;;4991964;28;20009;-69
2022/02/13 08:49:00;;;;;;;;;;;;;;;;;;4997206;28;19918;-69
2022/02/13 08:51:25;;;;;;;;;;;;;;;;;;4991615;28;20020;-69
2022/02/13 08:53:50;;;;;;;;;;;;;;;;;;4994199;28;20407;-69
2022/02/13 08:56:16;;;;;;;;;;;;;;;;;;4997442;28;19920;-69
2022/02/13 08:58:41;;;;;;;;;;;;;;;;;;4994877;28;20452;-69
2022/02/13 09:01:06;;;;;;;;;;;;;;;;;;4992846;28;19949;-69
2022/02/13 09:03:33;;;;;;;;;;;;;;;;;;4992362;28;19914;-69
2022/02/13 09:05:58;;;;;;;;;;;;;;;;;;4998679;28;19956;-69
2022/02/13 09:08:23;;;;;;;;;;;;;;;;;;4998441;28;20366;-69
2022/02/13 09:10:48;;;;;;;;;;;;;;;;;;4998792;28;19914;-69
2022/02/13 09:13:14;;;;;;;;;;;;;;;;;;4998463;28;19914;-69
2022/02/13 09:15:39;;;;;;;;;;;;;;;;;;4998285;28;20678;-69
2022/02/13 09:18:04;;;;;;;;;;;;;;;;;;4997477;28;20441;-68
2022/02/13 09:20:29;;;;;;;;;;;;;;;;;;4992844;28;20650;-67
2022/02/13 09:22:55;;;;;;;;;;;;;;;;;;4998285;28;19918;-68
2022/02/13 09:25:20;;;;;;;;;;;;;;;;;;5002790;28;19922;-68
2022/02/13 09:27:45;;;;;;;;;;;;;;;;;;5001910;28;19917;-67
2022/02/13 09:30:10;;;;;;;;;;;;;;;;;;5003644;28;20360;-67
2022/02/13 09:32:38;;;;;;;;;;;;;;;;;;4993341;28;20329;-69
2022/02/13 09:35:03;;;;;;;;;;;;;;;;;;4999270;28;19957;-68
2022/02/13 09:37:29;;;;;;;;;;;;;;;;;;5005209;28;20001;-68
2022/02/13 09:39:54;;;;;;;;;;;;;;;;;;4993938;28;20634;-69
2022/02/13 09:42:22;;;;;;;;;;;;;;;;;;4997423;28;19972;-68
2022/02/13 09:44:48;;;;;;;;;;;;;;;;;;4998795;28;19914;-68
2022/02/13 09:47:13;;;;;;;;;;;;;;;;;;4994496;28;19972;-69
2022/02/13 09:49:38;;;;;;;;;;;;;;;;;;4995350;28;19914;-68
2022/02/13 09:52:04;;;;;;;;;;;;;;;;;;4996274;28;19918;-69
2022/02/13 09:54:29;;;;;;;;;;;;;;;;;;4977962;28;19917;-69
2022/02/13 09:57:59;;;;;;;;;;;;;;;;;;4992297;28;20012;-69
2022/02/13 09:59:39;;;;;;;;;;;;;;;;;;4993087;28;19922;-68
2022/02/13 10:02:05;;;;;;;;;;;;;;;;;;4989871;28;19924;-68
2022/02/13 10:04:30;;;;;;;;;;;;;;;;;;5001822;28;20366;-67
2022/02/13 10:06:55;;;;;;;;;;;;;;;;;;4988921;28;19920;-69
2022/02/13 10:09:23;;;;;;;;;;;;;;;;;;4991890;28;19992;-68
2022/02/13 10:11:48;;;;;;;;;;;;;;;;;;4994170;28;20665;-68
2022/02/13 10:14:15;;;;;;;;;;;;;;;;;;4991921;28;19918;-68
2022/02/13 10:16:40;;;;;;;;;;;;;;;;;;4991912;28;19913;-67
2022/02/13 10:19:05;;;;;;;;;;;;;;;;;;4990297;28;19924;-67
2022/02/13 10:21:31;;;;;;;;;;;;;;;;;;4995371;28;20231;-67
2022/02/13 10:23:56;;;;;;;;;;;;;;;;;;4993780;28;19952;-68
2022/02/13 10:26:21;;;;;;;;;;;;;;;;;;4990232;28;20040;-69
2022/02/13 10:28:46;;;;;;;;;;;;;;;;;;4974389;28;20000;-69
2022/02/13 10:31:11;;;;;;;;;;;;;;;;;;4991481;28;20632;-69
2022/02/13 10:33:37;;;;;;;;;;;;;;;;;;4989153;28;20069;-68
2022/02/13 10:36:02;;;;;;;;;;;;;;;;;;4996328;28;19934;-67
2022/02/13 10:38:27;;;;;;;;;;;;;;;;;;4985031;28;19944;-69
2022/02/13 10:40:52;;;;;;;;;;;;;;;;;;4989992;28;19921;-67
2022/02/13 10:43:18;;;;;;;;;;;;;;;;;;4991450;28;19921;-69
2022/02/13 10:45:44;;;;;;;;;;;;;;;;;;4992094;28;20399;-68
2022/02/13 10:48:09;;;;;;;;;;;;;;;;;;4991066;28;19920;-66
2022/02/13 10:50:37;;;;;;;;;;;;;;;;;;4988717;28;19914;-65
2022/02/13 10:53:02;;;;;;;;;;;;;;;;;;4993212;28;19916;-66
2022/02/13 10:55:27;;;;;;;;;;;;;;;;;;4989264;28;20004;-66
2022/02/13 10:57:54;;;;;;;;;;;;;;;;;;4990297;28;19932;-67
2022/02/13 11:00:19;;;;;;;;;;;;;;;;;;4997359;28;19933;-66
2022/02/13 11:02:44;;;;;;;;;;;;;;;;;;4985859;28;19918;-66
2022/02/13 11:05:10;;;;;;;;;;;;;;;;;;4990941;28;20491;-66
2022/02/13 11:07:35;;;;;;;;;;;;;;;;;;4988775;28;20482;-67
2022/02/13 11:10:00;;;;;;;;;;;;;;;;;;4986337;28;20277;-67
2022/02/13 11:12:26;;;;;;;;;;;;;;;;;;4996979;28;19909;-66
2022/02/13 11:14:51;;;;;;;;;;;;;;;;;;4987446;28;19921;-67
2022/02/13 11:17:16;;;;;;;;;;;;;;;;;;4992758;28;20745;-66
2022/02/13 11:19:41;;;;;;;;;;;;;;;;;;4990300;28;19995;-67
2022/02/13 11:22:07;;;;;;;;;;;;;;;;;;4988675;28;19966;-67
2022/02/13 11:24:36;;;;;;;;;;;;;;;;;;5001156;28;20060;-67
2022/02/13 11:27:02;;;;;;;;;;;;;;;;;;4977968;28;19913;-67
2022/02/13 11:29:28;;;;;;;;;;;;;;;;;;4996106;28;19976;-67
2022/02/13 11:31:55;;;;;;;;;;;;;;;;;;4987957;28;20373;-68
2022/02/13 11:34:21;;;;;;;;;;;;;;;;;;4992148;28;19925;-67
2022/02/13 11:36:47;;;;;;;;;;;;;;;;;;5002465;28;19917;-67
2022/02/13 11:39:12;;;;;;;;;;;;;;;;;;4989800;28;20524;-67
2022/02/13 11:41:37;;;;;;;;;;;;;;;;;;4993163;28;19917;-67
2022/02/13 11:44:03;;;;;;;;;;;;;;;;;;4988408;28;19923;-66
2022/02/13 11:46:30;;;;;;;;;;;;;;;;;;4988975;28;20592;-66
2022/02/13 11:48:57;;;;;;;;;;;;;;;;;;5001399;28;19913;-67
2022/02/13 11:51:22;;;;;;;;;;;;;;;;;;4987829;28;19914;-66
2022/02/13 11:53:47;;;;;;;;;;;;;;;;;;4991567;28;19913;-66
2022/02/13 11:56:12;;;;;;;;;;;;;;;;;;4993233;28;19914;-66
2022/02/13 11:58:37;;;;;;;;;;;;;;;;;;4995704;28;19925;-66
2022/02/13 12:01:03;;;;;;;;;;;;;;;;;;4991868;28;19929;-66
2022/02/13 12:03:32;;;;;;;;;;;;;;;;;;4993680;28;19960;-67
2022/02/13 12:05:58;;;;;;;;;;;;;;;;;;4992541;28;19921;-66
2022/02/13 12:08:23;;;;;;;;;;;;;;;;;;4971720;28;20470;-67
2022/02/13 12:10:49;;;;;;;;;;;;;;;;;;4993375;28;19917;-67
2022/02/13 12:13:14;;;;;;;;;;;;;;;;;;4990854;28;19980;-68
2022/02/13 12:15:39;;;;;;;;;;;;;;;;;;4990544;28;19914;-68
2022/02/13 12:18:04;;;;;;;;;;;;;;;;;;4990791;28;19917;-68
2022/02/13 12:20:31;;;;;;;;;;;;;;;;;;4995075;28;20012;-69
2022/02/13 12:22:56;;;;;;;;;;;;;;;;;;4989984;28;19914;-69
2022/02/13 12:25:21;;;;;;;;;;;;;;;;;;4996085;28;20008;-69
2022/02/13 12:27:47;;;;;;;;;;;;;;;;;;4993300;28;19936;-69
2022/02/13 12:30:12;;;;;;;;;;;;;;;;;;4993148;28;19917;-69
2022/02/13 12:32:38;;;;;;;;;;;;;;;;;;4992266;28;19929;-69
2022/02/13 12:35:03;;;;;;;;;;;;;;;;;;4994280;28;19913;-69
2022/02/13 12:37:28;;;;;;;;;;;;;;;;;;4997374;28;19925;-69
2022/02/13 12:39:53;;;;;;;;;;;;;;;;;;4995750;28;19944;-69
2022/02/13 12:42:18;;;;;;;;;;;;;;;;;;4996477;28;19918;-68
2022/02/13 12:44:44;;;;;;;;;;;;;;;;;;4992699;28;20318;-69
2022/02/13 12:47:09;;;;;;;;;;;;;;;;;;4999820;28;19914;-69
2022/02/13 12:49:34;;;;;;;;;;;;;;;;;;4998624;28;19937;-69
2022/02/13 12:51:59;;;;;;;;;;;;;;;;;;4993263;28;20385;-68
2022/02/13 12:54:25;;;;;;;;;;;;;;;;;;4994489;28;19920;-68
2022/02/13 12:56:50;;;;;;;;;;;;;;;;;;4997733;28;19918;-68
2022/02/13 12:59:15;;;;;;;;;;;;;;;;;;5003299;28;19921;-68
2022/02/13 13:01:40;;;;;;;;;;;;;;;;;;4994963;28;20011;-69
2022/02/13 13:04:05;;;;;;;;;;;;;;;;;;4994156;28;19952;-68
2022/02/13 13:06:32;;;;;;;;;;;;;;;;;;4999876;28;19921;-69
2022/02/13 13:08:58;;;;;;;;;;;;;;;;;;5003024;28;19961;-68
2022/02/13 13:11:24;;;;;;;;;;;;;;;;;;5002514;28;20293;-70
2022/02/13 13:13:49;;;;;;;;;;;;;;;;;;5000268;28;19910;-68
2022/02/13 13:16:21;;;;;;;;;;;;;;;;;;5000331;28;19918;-69
2022/02/13 13:18:46;;;;;;;;;;;;;;;;;;4998056;28;19913;-68
2022/02/13 13:21:11;;;;;;;;;;;;;;;;;;4993446;28;19976;-68
2022/02/13 13:23:37;;;;;;;;;;;;;;;;;;5001881;28;19953;-68
2022/02/13 13:26:02;;;;;;;;;;;;;;;;;;4999465;28;20044;-69
2022/02/13 13:28:27;;;;;;;;;;;;;;;;;;4994435;28;19918;-69
2022/02/13 13:30:52;;;;;;;;;;;;;;;;;;4996127;28;20573;-68
2022/02/13 13:33:18;;;;;;;;;;;;;;;;;;4995306;28;20354;-69
2022/02/13 13:35:45;;;;;;;;;;;;;;;;;;4998048;28;20293;-68
2022/02/13 13:38:11;;;;;;;;;;;;;;;;;;5007686;28;19921;-68
2022/02/13 13:40:36;;;;;;;;;;;;;;;;;;4995903;28;19918;-69
2022/02/13 13:43:07;;;;;;;;;;;;;;;;;;4999247;28;20141;-68
2022/02/13 13:45:34;;;;;;;;;;;;;;;;;;5005960;28;20365;-68
2022/02/13 13:47:59;;;;;;;;;;;;;;;;;;5000061;28;20044;-68
2022/02/13 13:50:24;;;;;;;;;;;;;;;;;;4995752;28;19997;-68
2022/02/13 13:52:49;;;;;;;;;;;;;;;;;;4998025;28;19918;-68
2022/02/13 13:55:15;;;;;;;;;;;;;;;;;;5000983;28;19932;-68
2022/02/13 13:57:40;;;;;;;;;;;;;;;;;;4994360;28;20215;-68
2022/02/13 14:00:05;;;;;;;;;;;;;;;;;;4998471;28;19928;-68
2022/02/13 14:02:36;;;;;;;;;;;;;;;;;;4998855;28;19914;-68
2022/02/13 14:05:01;;;;;;;;;;;;;;;;;;5006460;28;19921;-68
2022/02/13 14:07:27;;;;;;;;;;;;;;;;;;5002386;28;19909;-69
2022/02/13 14:09:52;;;;;;;;;;;;;;;;;;4999741;28;19914;-68
2022/02/13 14:12:18;;;;;;;;;;;;;;;;;;4995102;28;20008;-68
2022/02/13 14:14:43;;;;;;;;;;;;;;;;;;4992825;28;20262;-68
2022/02/13 14:17:08;;;;;;;;;;;;;;;;;;4997072;28;20279;-68
2022/02/13 14:19:34;;;;;;;;;;;;;;;;;;4995130;28;19967;-69
2022/02/13 14:21:59;;;;;;;;;;;;;;;;;;4992454;28;19928;-68
2022/02/13 14:24:24;;;;;;;;;;;;;;;;;;4997995;28;20000;-68
2022/02/13 14:26:49;;;;;;;;;;;;;;;;;;4993818;28;19952;-68
2022/02/13 14:29:14;;;;;;;;;;;;;;;;;;4991156;28;20028;-69
2022/02/13 14:31:40;;;;;;;;;;;;;;;;;;4996001;28;20332;-69
2022/02/13 14:34:05;;;;;;;;;;;;;;;;;;4994586;28;20516;-70
2022/02/13 14:36:30;;;;;;;;;;;;;;;;;;4993585;28;19953;-69
2022/02/13 14:38:55;;;;;;;;;;;;;;;;;;4996083;28;19914;-69
2022/02/13 14:41:21;;;;;;;;;;;;;;;;;;4993579;28;19972;-70
2022/02/13 14:43:47;;;;;;;;;;;;;;;;;;4990373;28;19936;-68
2022/02/13 14:46:12;;;;;;;;;;;;;;;;;;4983287;28;19913;-69
2022/02/13 14:48:38;;;;;;;;;;;;;;;;;;4998202;28;19976;-70
2022/02/13 14:51:03;;;;;;;;;;;;;;;;;;4995073;28;19917;-69
2022/02/13 14:53:28;;;;;;;;;;;;;;;;;;4998603;28;20215;-69
2022/02/13 14:55:54;;;;;;;;;;;;;;;;;;4992529;28;19929;-69
2022/02/13 14:58:19;;;;;;;;;;;;;;;;;;5010090;28;19910;-69
2022/02/13 15:00:44;;;;;;;;;;;;;;;;;;4991999;28;20400;-69
2022/02/13 15:03:10;;;;;;;;;;;;;;;;;;4993308;28;20513;-69
2022/02/13 15:05:37;;;;;;;;;;;;;;;;;;4992027;28;20351;-69
2022/02/13 15:08:02;;;;;;;;;;;;;;;;;;4992142;28;19913;-69
2022/02/13 15:10:27;;;;;;;;;;;;;;;;;;4992976;28;19925;-69
2022/02/13 15:12:52;;;;;;;;;;;;;;;;;;4995625;28;20334;-70
2022/02/13 15:15:17;;;;;;;;;;;;;;;;;;4998174;28;19913;-70
2022/02/13 15:17:43;;;;;;;;;;;;;;;;;;5003687;28;19913;-69
2022/02/13 15:20:08;;;;;;;;;;;;;;;;;;4991014;28;19925;-70
2022/02/13 15:22:33;;;;;;;;;;;;;;;;;;4991591;28;19918;-72
2022/02/13 15:24:58;;;;;;;;;;;;;;;;;;4996221;28;19905;-70
2022/02/13 15:27:24;;;;;;;;;;;;;;;;;;4995150;28;20000;-71
2022/02/13 15:29:55;;;;;;;;;;;;;;;;;;4991313;28;20044;-69
2022/02/13 15:32:21;;;;;;;;;;;;;;;;;;4995529;28;19921;-71
2022/02/13 15:34:46;;;;;;;;;;;;;;;;;;4996659;28;20266;-68
2022/02/13 15:37:11;;;;;;;;;;;;;;;;;;4993778;28;20590;-69
2022/02/13 15:39:37;;;;;;;;;;;;;;;;;;4989405;28;19921;-69
2022/02/13 15:42:02;;;;;;;;;;;;;;;;;;4992760;28;19918;-70
2022/02/13 15:44:28;;;;;;;;;;;;;;;;;;4997964;28;19935;-69
2022/02/13 15:46:54;;;;;;;;;;;;;;;;;;5002680;28;19917;-69
2022/02/13 15:49:19;;;;;;;;;;;;;;;;;;4991920;28;20038;-69
2022/02/13 15:51:45;;;;;;;;;;;;;;;;;;4994766;28;20310;-69
2022/02/13 15:54:10;;;;;;;;;;;;;;;;;;4996853;28;20134;-68
2022/02/13 15:56:35;;;;;;;;;;;;;;;;;;4995425;28;20366;-69
2022/02/13 15:59:01;;;;;;;;;;;;;;;;;;4989682;28;19920;-69
2022/02/13 16:01:26;;;;;;;;;;;;;;;;;;5001126;28;19922;-68
2022/02/13 16:03:52;;;;;;;;;;;;;;;;;;4995764;28;19921;-68
2022/02/13 16:06:17;;;;;;;;;;;;;;;;;;4988203;28;19910;-69
2022/02/13 16:08:42;;;;;;;;;;;;;;;;;;4989443;28;19944;-69
2022/02/13 16:11:07;;;;;;;;;;;;;;;;;;5004230;28;19917;-69
2022/02/13 16:13:33;;;;;;;;;;;;;;;;;;5002567;28;20311;-69
2022/02/13 16:15:58;;;;;;;;;;;;;;;;;;4998780;28;20428;-69
2022/02/13 16:18:23;;;;;;;;;;;;;;;;;;4994837;28;19921;-69
2022/02/13 16:20:49;;;;;;;;;;;;;;;;;;4999660;28;19934;-69
2022/02/13 16:25:59;;;;;;;;;;;;;;;;;;4976349;28;19914;-69
2022/02/13 16:28:25;;;;;;;;;;;;;;;;;;4998451;28;19914;-68
2022/02/13 16:30:50;;;;;;;;;;;;;;;;;;5000922;28;19948;-68
2022/02/13 16:33:15;;;;;;;;;;;;;;;;;;5001690;28;20090;-68
2022/02/13 16:35:40;;;;;;;;;;;;;;;;;;4992287;28;20015;-68